Time;durP1;ratioP1;P1;durP2;ratioP2;P2;SDS_P1;SDS_P2;PMS_P1;PMS_P2;Temp;Humidity;BMP_temperature;BMP_pressure;BME280_temperature;BME280_humidity;BME280_pressure;Samples;Min_cycle;Max_cycle;Signal;HPM_P1;HPM_P2
2021/08/17 00:01:10;;;;;;;4.80;2.57;;;23.80;49.40;;;;;;5087581;28;20506;-67
2021/08/17 00:03:39;;;;;;;4.57;3.00;;;23.70;49.40;;;;;;5074368;28;20193;-66
2021/08/17 00:06:08;;;;;;;4.77;2.97;;;23.70;49.50;;;;;;5084183;28;20858;-67
2021/08/17 00:08:38;;;;;;;3.67;2.50;;;23.70;49.50;;;;;;5086648;28;20204;-67
2021/08/17 00:11:07;;;;;;;4.93;3.07;;;23.70;49.50;;;;;;5088871;28;20193;-67
2021/08/17 00:13:38;;;;;;;4.77;2.97;;;23.70;49.60;;;;;;5114629;27;20207;-66
2021/08/17 00:16:07;;;;;;;4.10;3.30;;;23.70;49.60;;;;;;5090890;28;20193;-67
2021/08/17 00:18:36;;;;;;;5.70;3.20;;;23.70;49.60;;;;;;5111802;27;20242;-67
2021/08/17 00:21:09;;;;;;;4.33;3.30;;;23.70;49.70;;;;;;5110729;27;20211;-67
2021/08/17 00:23:42;;;;;;;5.93;3.40;;;23.70;49.70;;;;;;5110788;27;20200;-67
2021/08/17 00:26:13;;;;;;;4.13;2.83;;;23.70;49.70;;;;;;5108325;28;20219;-67
2021/08/17 00:28:44;;;;;;;4.67;3.30;;;23.70;49.80;;;;;;5110527;27;20188;-66
2021/08/17 00:31:12;;;;;;;4.67;3.60;;;23.70;49.90;;;;;;5093755;28;20618;-66
2021/08/17 00:33:42;;;;;;;5.40;4.00;;;23.60;49.80;;;;;;5110369;27;20200;-67
2021/08/17 00:36:13;;;;;;;5.23;3.90;;;23.60;49.90;;;;;;5109608;28;20249;-67
2021/08/17 00:38:45;;;;;;;5.53;4.20;;;23.60;49.90;;;;;;5109285;28;20208;-66
2021/08/17 00:41:13;;;;;;;6.47;4.37;;;23.60;50.00;;;;;;5092175;28;20205;-66
2021/08/17 00:43:45;;;;;;;8.43;4.50;;;23.60;50.10;;;;;;5091225;28;20261;-66
2021/08/17 00:46:16;;;;;;;6.77;4.70;;;23.60;50.10;;;;;;5112493;27;21490;-66
2021/08/17 00:48:48;;;;;;;8.90;5.50;;;23.60;50.20;;;;;;5109183;27;20216;-65
2021/08/17 00:51:18;;;;;;;8.37;5.30;;;23.60;50.30;;;;;;5110478;28;20193;-66
2021/08/17 00:53:46;;;;;;;6.80;5.30;;;23.60;50.30;;;;;;5111120;27;20212;-67
2021/08/17 00:56:15;;;;;;;7.10;5.30;;;23.60;50.30;;;;;;5101505;28;20200;-66
2021/08/17 00:58:44;;;;;;;6.83;5.40;;;23.60;50.40;;;;;;5104362;27;20643;-66
2021/08/17 01:01:16;;;;;;;7.93;5.60;;;23.60;50.40;;;;;;5092449;28;20203;-66
2021/08/17 01:03:48;;;;;;;7.77;5.90;;;23.60;50.50;;;;;;5114541;27;20214;-67
2021/08/17 01:06:20;;;;;;;9.40;6.20;;;23.60;50.50;;;;;;5092771;27;20216;-66
2021/08/17 01:08:52;;;;;;;9.47;6.67;;;23.60;50.50;;;;;;5096006;28;20585;-66
2021/08/17 01:11:20;;;;;;;9.70;6.80;;;23.60;50.60;;;;;;5110443;27;20207;-66
2021/08/17 01:13:50;;;;;;;8.40;6.63;;;23.60;50.60;;;;;;5109780;28;20652;-66
2021/08/17 01:16:25;;;;;;;8.17;6.80;;;23.60;50.70;;;;;;5091209;28;20270;-67
2021/08/17 01:18:58;;;;;;;8.90;7.03;;;23.50;50.60;;;;;;5109821;28;20180;-67
2021/08/17 01:21:32;;;;;;;9.47;7.60;;;23.50;50.60;;;;;;5107641;27;20204;-66
2021/08/17 01:24:05;;;;;;;11.30;8.40;;;23.50;50.70;;;;;;5091929;28;20192;-67
2021/08/17 01:26:35;;;;;;;11.20;8.70;;;23.50;50.70;;;;;;5092164;28;20645;-66
2021/08/17 01:29:02;;;;;;;9.17;7.43;;;23.50;50.70;;;;;;5113068;27;20196;-66
2021/08/17 01:31:32;;;;;;;10.67;8.50;;;23.50;50.80;;;;;;5090287;28;20849;-67
2021/08/17 01:34:03;;;;;;;11.17;8.43;;;23.50;50.80;;;;;;5109478;28;20189;-66
2021/08/17 01:36:32;;;;;;;11.57;8.17;;;23.50;50.90;;;;;;5107474;28;20205;-67
2021/08/17 01:39:06;;;;;;;11.07;8.90;;;23.40;50.80;;;;;;5109827;27;20203;-67
2021/08/17 01:41:38;;;;;;;10.53;9.13;;;23.50;50.90;;;;;;5110149;27;20637;-66
2021/08/17 01:44:16;;;;;;;13.70;9.60;;;23.50;50.90;;;;;;5090689;28;20649;-66
2021/08/17 01:46:46;;;;;;;12.47;10.70;;;23.40;50.90;;;;;;5112389;27;20188;-67
2021/08/17 01:49:19;;;;;;;12.17;9.77;;;23.50;51.50;;;;;;5091570;28;20239;-67
2021/08/17 01:51:49;;;;;;;12.17;9.87;;;23.40;50.90;;;;;;5091732;28;20196;-67
2021/08/17 01:54:21;;;;;;;12.37;10.40;;;23.50;51.00;;;;;;5089849;28;20192;-67
2021/08/17 01:56:50;;;;;;;10.93;9.67;;;23.50;51.10;;;;;;5108792;28;20204;-66
2021/08/17 01:59:21;;;;;;;12.23;10.13;;;23.50;51.10;;;;;;5109260;27;20196;-66
2021/08/17 02:01:50;;;;;;;13.07;10.40;;;23.40;51.10;;;;;;5109119;28;20192;-67
2021/08/17 02:04:20;;;;;;;13.23;10.87;;;23.40;51.10;;;;;;5108790;27;20285;-66
2021/08/17 02:06:49;;;;;;;13.33;10.20;;;23.40;51.20;;;;;;5106340;28;20210;-67
2021/08/17 02:09:21;;;;;;;13.77;10.70;;;23.50;51.20;;;;;;5108178;28;20224;-66
2021/08/17 02:11:50;;;;;;;12.97;10.97;;;23.40;51.30;;;;;;5090314;28;20202;-66
2021/08/17 02:14:17;;;;;;;14.60;10.93;;;23.40;51.30;;;;;;5113051;27;20207;-67
2021/08/17 02:16:48;;;;;;;13.27;10.60;;;23.40;51.30;;;;;;5112895;28;20239;-66
2021/08/17 02:19:18;;;;;;;14.17;10.57;;;23.40;51.30;;;;;;5115741;27;20215;-66
2021/08/17 02:21:48;;;;;;;15.30;11.63;;;23.40;51.30;;;;;;5117167;27;20193;-66
2021/08/17 02:24:19;;;;;;;13.50;11.37;;;23.40;51.30;;;;;;5116331;27;20248;-67
2021/08/17 02:26:50;;;;;;;14.47;11.10;;;23.40;51.30;;;;;;5118689;27;20833;-66
2021/08/17 02:29:20;;;;;;;14.37;11.70;;;23.40;51.30;;;;;;5115816;27;20184;-66
2021/08/17 02:31:51;;;;;;;17.17;12.77;;;23.30;51.30;;;;;;5114869;27;20220;-66
2021/08/17 02:34:22;;;;;;;15.27;11.80;;;23.40;51.40;;;;;;5116578;27;20210;-69
2021/08/17 02:36:52;;;;;;;14.17;11.20;;;23.30;51.30;;;;;;5114124;27;20687;-70
2021/08/17 02:39:23;;;;;;;14.67;12.07;;;23.40;51.40;;;;;;5116445;27;20200;-66
2021/08/17 02:41:53;;;;;;;13.93;11.77;;;23.30;51.30;;;;;;5114793;27;20291;-66
2021/08/17 02:44:25;;;;;;;14.63;11.53;;;23.40;51.40;;;;;;5114924;28;20208;-67
2021/08/17 02:46:53;;;;;;;16.17;12.33;;;23.30;51.40;;;;;;5114499;27;20211;-66
2021/08/17 02:49:25;;;;;;;16.03;12.13;;;23.30;51.40;;;;;;5114929;27;20583;-65
2021/08/17 02:51:55;;;;;;;15.03;12.10;;;23.30;51.40;;;;;;5115279;27;20196;-66
2021/08/17 02:54:27;;;;;;;15.40;11.80;;;23.30;51.40;;;;;;5097677;28;20196;-66
2021/08/17 02:56:57;;;;;;;15.53;12.60;;;23.30;51.50;;;;;;5113787;27;20203;-66
2021/08/17 02:59:26;;;;;;;14.30;11.97;;;23.30;51.50;;;;;;5116393;27;20279;-66
2021/08/17 03:01:58;;;;;;;15.30;12.77;;;23.30;51.50;;;;;;5115140;27;20208;-66
2021/08/17 03:04:30;;;;;;;15.60;13.20;;;23.30;51.50;;;;;;5114693;27;20215;-66
2021/08/17 03:06:58;;;;;;;16.83;13.30;;;23.30;51.60;;;;;;5114207;27;20346;-66
2021/08/17 03:09:28;;;;;;;14.87;12.37;;;23.30;51.60;;;;;;5098197;28;20208;-66
2021/08/17 03:12:00;;;;;;;17.60;12.97;;;23.30;51.70;;;;;;5114899;28;20200;-64
2021/08/17 03:14:30;;;;;;;16.87;12.17;;;23.30;51.60;;;;;;5093238;28;20204;-64
2021/08/17 03:17:03;;;;;;;14.13;11.93;;;23.30;51.70;;;;;;5114859;27;20235;-66
2021/08/17 03:19:36;;;;;;;16.03;12.47;;;23.30;51.80;;;;;;5113516;27;20201;-65
2021/08/17 03:22:08;;;;;;;13.57;12.00;;;23.30;51.80;;;;;;5114978;28;20641;-65
2021/08/17 03:24:56;;;;;;;16.37;13.13;;;23.20;51.70;;;;;;5113540;27;20196;-67
2021/08/17 03:27:25;;;;;;;15.20;12.37;;;23.30;51.80;;;;;;5112247;28;20279;-66
2021/08/17 03:29:57;;;;;;;15.83;13.23;;;23.30;51.80;;;;;;5110310;27;20199;-66
2021/08/17 03:32:29;;;;;;;15.83;12.80;;;23.30;51.90;;;;;;5111794;27;20195;-66
2021/08/17 03:35:10;;;;;;;15.53;12.20;;;23.20;51.80;;;;;;5104286;27;20572;-66
2021/08/17 03:37:40;;;;;;;14.33;11.87;;;23.20;51.80;;;;;;5093041;28;20532;-66
2021/08/17 03:40:14;;;;;;;17.83;12.90;;;23.30;51.90;;;;;;5110301;28;20215;-66
2021/08/17 03:42:43;;;;;;;16.87;12.97;;;23.20;51.90;;;;;;5093291;28;20192;-66
2021/08/17 03:45:18;;;;;;;16.47;12.57;;;23.20;51.80;;;;;;5111015;28;20216;-66
2021/08/17 03:47:50;;;;;;;15.47;12.67;;;23.20;51.90;;;;;;5110421;28;20215;-66
2021/08/17 03:50:20;;;;;;;17.10;13.23;;;23.20;52.00;;;;;;5086260;28;20192;-66
2021/08/17 03:52:51;;;;;;;15.07;13.10;;;23.20;52.00;;;;;;5077094;28;20188;-67
2021/08/17 03:55:23;;;;;;;14.90;12.43;;;23.20;52.00;;;;;;5103759;28;20203;-66
2021/08/17 03:57:51;;;;;;;14.87;12.57;;;23.20;52.10;;;;;;5094847;28;20236;-66
2021/08/17 04:00:28;;;;;;;13.77;11.90;;;23.20;52.20;;;;;;5093013;28;20251;-66
2021/08/17 04:03:12;;;;;;;14.70;12.20;;;23.20;52.20;;;;;;5096144;28;20588;-66
2021/08/17 04:05:46;;;;;;;15.90;11.70;;;23.20;52.20;;;;;;5113508;27;20228;-66
2021/08/17 04:08:16;;;;;;;14.33;11.50;;;23.20;52.20;;;;;;5108135;28;20235;-66
2021/08/17 04:10:47;;;;;;;14.43;11.57;;;23.20;52.30;;;;;;5098463;28;20227;-66
2021/08/17 04:13:20;;;;;;;16.13;11.93;;;23.20;52.30;;;;;;5110513;28;20833;-66
2021/08/17 04:16:14;;;;;;;14.70;12.57;;;23.20;52.30;;;;;;5119001;27;20203;-64
2021/08/17 04:18:44;;;;;;;13.70;11.77;;;23.20;52.50;;;;;;5069160;28;20201;-66
2021/08/17 04:21:15;;;;;;;14.57;11.30;;;23.20;52.40;;;;;;5079026;28;20265;-66
2021/08/17 04:23:52;;;;;;;13.73;11.70;;;23.20;52.40;;;;;;5071629;28;20538;-66
2021/08/17 04:26:25;;;;;;;16.07;12.27;;;23.20;52.40;;;;;;5080668;28;20261;-66
2021/08/17 04:28:55;;;;;;;14.80;11.57;;;23.20;52.40;;;;;;5081097;28;20589;-65
2021/08/17 04:31:24;;;;;;;15.43;11.30;;;23.20;52.40;;;;;;5069844;28;20541;-66
2021/08/17 04:33:54;;;;;;;16.20;11.90;;;23.20;52.40;;;;;;5071107;28;20646;-66
2021/08/17 04:36:24;;;;;;;13.73;11.47;;;23.20;52.40;;;;;;5069896;28;20204;-65
2021/08/17 04:38:53;;;;;;;14.93;11.50;;;23.20;52.40;;;;;;5084035;28;20201;-66
2021/08/17 04:41:20;;;;;;;15.90;11.73;;;23.20;52.40;;;;;;5068379;28;20235;-65
2021/08/17 04:43:53;;;;;;;14.23;11.27;;;23.20;52.40;;;;;;5072630;28;20198;-66
2021/08/17 04:46:22;;;;;;;14.17;11.60;;;23.10;52.40;;;;;;5069596;28;20272;-66
2021/08/17 04:48:51;;;;;;;13.73;11.97;;;23.10;52.40;;;;;;5069989;28;20202;-66
2021/08/17 04:51:21;;;;;;;13.87;11.37;;;23.20;52.40;;;;;;5073901;28;20535;-66
2021/08/17 04:53:51;;;;;;;13.83;11.90;;;23.10;52.40;;;;;;5070458;28;20205;-66
2021/08/17 04:56:23;;;;;;;14.80;12.20;;;23.20;52.40;;;;;;5078987;28;20200;-66
2021/08/17 04:58:54;;;;;;;13.20;11.23;;;23.10;52.40;;;;;;5069363;28;20541;-65
2021/08/17 05:01:26;;;;;;;13.40;10.83;;;23.20;52.40;;;;;;5069958;28;20206;-67
2021/08/17 05:04:18;;;;;;;14.47;11.80;;;23.10;52.40;;;;;;5051344;28;20717;-67
2021/08/17 05:06:51;;;;;;;14.73;11.20;;;23.20;52.30;;;;;;5074287;28;20225;-66
2021/08/17 05:09:24;;;;;;;13.60;10.80;;;23.10;52.30;;;;;;5068253;28;20587;-66
2021/08/17 05:11:57;;;;;;;14.27;11.17;;;23.10;52.40;;;;;;5069074;28;20476;-66
2021/08/17 05:14:28;;;;;;;14.33;10.83;;;23.10;52.40;;;;;;5069975;28;20194;-66
2021/08/17 05:16:58;;;;;;;13.60;11.90;;;23.10;52.40;;;;;;5083302;28;20630;-66
2021/08/17 05:19:28;;;;;;;13.90;11.20;;;23.10;52.40;;;;;;5109375;28;20184;-66
2021/08/17 05:21:57;;;;;;;13.63;10.80;;;23.10;52.40;;;;;;5106924;27;20208;-66
2021/08/17 05:24:26;;;;;;;12.67;10.87;;;23.10;52.40;;;;;;5109029;28;20201;-66
2021/08/17 05:26:56;;;;;;;14.33;11.50;;;23.10;52.40;;;;;;5109874;27;20849;-67
2021/08/17 05:29:27;;;;;;;13.27;11.10;;;23.10;52.40;;;;;;5109890;28;20192;-66
2021/08/17 05:31:57;;;;;;;14.87;11.47;;;23.10;52.40;;;;;;5109895;27;20519;-66
2021/08/17 05:34:27;;;;;;;12.70;11.07;;;23.10;52.40;;;;;;5092093;27;20207;-66
2021/08/17 05:36:54;;;;;;;13.70;11.53;;;23.10;52.40;;;;;;5091694;28;20204;-67
2021/08/17 05:39:23;;;;;;;14.80;11.07;;;23.10;52.40;;;;;;5109436;28;20200;-67
2021/08/17 05:41:57;;;;;;;14.63;11.17;;;23.10;52.40;;;;;;5092015;28;20212;-66
2021/08/17 05:44:28;;;;;;;11.83;10.63;;;23.10;52.40;;;;;;5110085;27;20204;-66
2021/08/17 05:46:57;;;;;;;12.23;9.83;;;23.10;52.50;;;;;;5109429;28;20226;-65
2021/08/17 05:49:26;;;;;;;13.00;10.30;;;23.10;52.50;;;;;;5089565;28;20220;-65
2021/08/17 05:51:54;;;;;;;12.33;10.17;;;23.10;52.60;;;;;;5099875;28;20261;-65
2021/08/17 05:54:23;;;;;;;13.23;10.70;;;23.10;52.60;;;;;;5108962;28;20205;-65
2021/08/17 05:56:53;;;;;;;15.30;11.17;;;23.10;52.60;;;;;;5109246;28;20926;-67
2021/08/17 05:59:29;;;;;;;12.80;10.73;;;23.10;52.60;;;;;;5110502;28;20261;-67
2021/08/17 06:02:05;;;;;;;11.97;10.57;;;23.10;52.60;;;;;;5109422;28;20535;-66
2021/08/17 06:04:37;;;;;;;15.83;10.90;;;23.10;52.70;;;;;;5108861;28;20344;-66
2021/08/17 06:07:08;;;;;;;13.27;10.30;;;23.10;52.80;;;;;;5099470;28;20331;-65
2021/08/17 06:09:38;;;;;;;14.70;11.30;;;23.10;52.90;;;;;;5106114;28;20212;-65
2021/08/17 06:12:11;;;;;;;12.33;10.80;;;23.10;52.90;;;;;;5110140;28;20203;-67
2021/08/17 06:14:42;;;;;;;12.67;10.73;;;23.10;53.10;;;;;;5090943;28;20630;-67
2021/08/17 06:17:12;;;;;;;12.80;10.43;;;23.10;52.90;;;;;;5109553;28;20224;-67
2021/08/17 06:19:41;;;;;;;15.60;11.30;;;23.10;52.90;;;;;;5104410;28;20202;-66
2021/08/17 06:22:30;;;;;;;12.87;10.70;;;23.10;53.00;;;;;;5076831;28;20236;-67
2021/08/17 06:24:58;;;;;;;14.30;10.60;;;23.10;53.00;;;;;;5108477;28;20196;-67
2021/08/17 06:27:28;;;;;;;13.23;10.20;;;23.10;53.00;;;;;;5109122;28;20224;-66
2021/08/17 06:29:57;;;;;;;13.37;10.67;;;23.10;53.00;;;;;;5109029;28;20235;-66
2021/08/17 06:32:48;;;;;;;13.73;10.17;;;23.10;53.10;;;;;;5089330;28;20231;-65
2021/08/17 06:35:18;;;;;;;14.63;10.83;;;23.10;53.10;;;;;;5112746;28;20208;-66
2021/08/17 06:37:47;;;;;;;12.77;11.20;;;23.10;53.10;;;;;;5107210;28;20196;-66
2021/08/17 06:40:18;;;;;;;14.03;10.70;;;23.10;53.10;;;;;;5109289;28;20748;-66
2021/08/17 06:42:47;;;;;;;14.23;10.47;;;23.10;53.20;;;;;;5108879;28;20555;-65
2021/08/17 06:45:22;;;;;;;15.83;10.93;;;23.10;53.20;;;;;;5089672;28;20702;-66
2021/08/17 06:47:56;;;;;;;12.27;10.40;;;23.10;53.20;;;;;;5107247;28;20713;-65
2021/08/17 06:50:46;;;;;;;16.00;10.77;;;23.10;53.20;;;;;;5089083;28;20201;-66
2021/08/17 06:53:17;;;;;;;11.10;9.77;;;23.10;53.30;;;;;;5108664;28;20207;-65
2021/08/17 06:55:48;;;;;;;14.10;10.63;;;23.10;53.30;;;;;;5105854;28;20211;-65
2021/08/17 06:58:21;;;;;;;12.43;10.80;;;23.10;53.30;;;;;;5108060;28;20200;-65
2021/08/17 07:00:53;;;;;;;12.97;10.07;;;23.10;53.30;;;;;;5108885;28;20287;-66
2021/08/17 07:03:24;;;;;;;12.93;10.70;;;23.10;53.30;;;;;;5082109;28;20651;-66
2021/08/17 07:05:57;;;;;;;16.47;11.00;;;23.10;53.30;;;;;;5111371;27;20214;-65
2021/08/17 07:08:41;;;;;;;14.97;11.80;;;23.10;53.40;;;;;;5110990;28;20214;-65
2021/08/17 07:11:11;;;;;;;14.93;11.43;;;23.10;53.40;;;;;;5115217;27;20200;-66
2021/08/17 07:13:49;;;;;;;15.07;11.47;;;23.10;53.40;;;;;;5112958;27;20200;-67
2021/08/17 07:16:23;;;;;;;18.73;11.40;;;23.10;53.50;;;;;;5109525;28;20265;-67
2021/08/17 07:18:54;;;;;;;13.67;11.33;;;23.10;53.50;;;;;;5111220;27;20239;-67
2021/08/17 07:21:23;;;;;;;15.93;11.37;;;23.10;53.50;;;;;;5092951;28;20189;-67
2021/08/17 07:23:54;;;;;;;15.80;11.63;;;23.10;53.60;;;;;;5090996;27;20208;-67
2021/08/17 07:26:25;;;;;;;15.70;12.10;;;23.10;53.70;;;;;;5111224;27;20269;-66
2021/08/17 07:28:57;;;;;;;17.80;11.63;;;23.10;53.60;;;;;;5112507;27;20208;-66
2021/08/17 07:31:26;;;;;;;16.43;12.00;;;23.10;53.60;;;;;;5117516;27;20195;-66
2021/08/17 07:33:56;;;;;;;16.07;11.87;;;23.10;53.70;;;;;;5105927;27;20269;-66
2021/08/17 07:36:25;;;;;;;15.73;12.63;;;23.10;53.70;;;;;;5120874;27;20201;-67
2021/08/17 07:38:54;;;;;;;16.13;12.33;;;23.10;53.70;;;;;;5101426;27;20204;-67
2021/08/17 07:41:24;;;;;;;17.10;12.53;;;23.10;53.80;;;;;;5120120;27;20597;-67
2021/08/17 07:43:56;;;;;;;19.80;12.53;;;23.00;54.00;;;;;;5097658;27;20261;-67
2021/08/17 07:46:25;;;;;;;17.27;13.40;;;23.10;54.20;;;;;;5113041;27;20278;-66
2021/08/17 07:48:57;;;;;;;19.53;12.17;;;23.00;54.10;;;;;;5111654;28;20192;-66
2021/08/17 07:51:28;;;;;;;13.60;11.67;;;23.10;54.30;;;;;;5111794;28;20704;-67
2021/08/17 07:54:02;;;;;;;16.47;12.33;;;23.10;54.40;;;;;;5090848;28;20209;-67
2021/08/17 07:56:35;;;;;;;18.03;11.43;;;23.10;55.20;;;;;;5072805;28;20205;-65
2021/08/17 07:59:06;;;;;;;18.43;12.47;;;23.00;54.50;;;;;;5117628;27;20666;-65
2021/08/17 08:01:45;;;;;;;15.40;11.40;;;23.10;55.00;;;;;;5110846;27;20761;-67
2021/08/17 08:04:21;;;;;;;19.00;11.73;;;23.10;55.40;;;;;;5116289;27;20188;-67
2021/08/17 08:06:50;;;;;;;16.60;10.47;;;23.10;55.10;;;;;;5112441;27;20223;-67
2021/08/17 08:09:22;;;;;;;15.57;11.27;;;23.00;55.00;;;;;;5107477;27;20697;-66
2021/08/17 08:11:51;;;;;;;15.30;11.67;;;23.10;55.00;;;;;;5095407;28;20622;-70
2021/08/17 08:14:22;;;;;;;16.83;10.33;;;23.10;55.00;;;;;;5120595;27;20211;-66
2021/08/17 08:16:52;;;;;;;18.60;11.17;;;23.10;55.00;;;;;;5108175;27;20204;-66
2021/08/17 08:19:20;;;;;;;19.37;11.97;;;23.10;54.90;;;;;;5109500;28;20219;-66
2021/08/17 08:21:51;;;;;;;19.33;11.30;;;23.10;54.80;;;;;;5090402;27;20200;-65
2021/08/17 08:24:22;;;;;;;19.50;12.60;;;23.10;54.70;;;;;;5110729;27;20215;-65
2021/08/17 08:26:51;;;;;;;21.37;12.20;;;23.10;55.00;;;;;;5092804;28;20228;-66
2021/08/17 08:29:23;;;;;;;23.17;12.40;;;23.10;55.20;;;;;;5096279;27;20620;-67
2021/08/17 08:32:07;;;;;;;25.73;13.40;;;23.10;55.40;;;;;;5116214;27;20274;-66
2021/08/17 08:34:40;;;;;;;21.93;11.77;;;23.10;55.50;;;;;;5101834;27;20202;-66
2021/08/17 08:37:12;;;;;;;21.93;11.60;;;23.10;56.00;;;;;;5095770;27;20264;-66
2021/08/17 08:39:44;;;;;;;20.53;12.80;;;23.10;56.50;;;;;;5077599;28;20201;-66
2021/08/17 08:42:15;;;;;;;18.97;11.80;;;23.10;56.20;;;;;;5111345;27;20684;-66
2021/08/17 08:44:55;;;;;;;19.17;10.97;;;23.20;56.20;;;;;;5094175;28;20192;-66
2021/08/17 08:47:25;;;;;;;17.93;11.30;;;23.20;56.10;;;;;;5112232;27;20208;-67
2021/08/17 08:49:56;;;;;;;21.67;11.20;;;23.20;56.00;;;;;;5094491;28;20292;-67
2021/08/17 08:52:27;;;;;;;17.93;10.30;;;23.20;55.90;;;;;;5098565;27;20201;-66
2021/08/17 08:55:02;;;;;;;14.50;9.80;;;23.30;55.90;;;;;;5110984;27;20557;-66
2021/08/17 08:57:32;;;;;;;14.27;9.43;;;23.30;55.80;;;;;;5115231;27;20699;-66
2021/08/17 09:00:06;;;;;;;15.37;9.43;;;23.30;55.60;;;;;;5090132;28;20192;-65
2021/08/17 09:02:34;;;;;;;15.10;9.17;;;23.30;55.50;;;;;;5090915;28;20700;-66
2021/08/17 09:05:03;;;;;;;14.97;8.73;;;23.30;55.30;;;;;;5108722;27;20646;-67
2021/08/17 09:07:47;;;;;;;12.57;8.87;;;23.40;55.20;;;;;;5112690;27;20300;-67
2021/08/17 09:10:23;;;;;;;10.13;8.20;;;23.40;55.20;;;;;;5107861;28;20196;-66
2021/08/17 09:12:57;;;;;;;12.10;8.63;;;23.40;55.10;;;;;;5104739;27;20208;-66
2021/08/17 09:15:30;;;;;;;12.53;9.10;;;23.40;55.00;;;;;;5093268;28;20211;-67
2021/08/17 09:18:00;;;;;;;13.03;8.30;;;23.40;54.90;;;;;;5091145;28;20224;-66
2021/08/17 09:20:47;;;;;;;11.83;8.57;;;23.40;54.90;;;;;;5109887;28;20664;-66
2021/08/17 09:23:33;;;;;;;10.20;7.93;;;23.50;54.70;;;;;;5091623;28;20201;-66
2021/08/17 09:26:29;;;;;;;12.13;8.23;;;23.50;54.60;;;;;;5108914;28;20535;-67
2021/08/17 09:29:03;;;;;;;11.20;7.87;;;23.50;55.10;;;;;;5111769;27;20273;-67
2021/08/17 09:31:36;;;;;;;10.20;7.67;;;23.40;54.50;;;;;;5108147;27;20208;-66
2021/08/17 09:34:26;;;;;;;8.80;7.60;;;23.40;54.50;;;;;;5092587;28;20267;-65
2021/08/17 09:37:11;;;;;;;11.67;8.50;;;23.50;54.50;;;;;;5103923;27;20231;-66
2021/08/17 09:40:08;;;;;;;13.00;8.33;;;23.40;54.30;;;;;;5092244;28;20204;-65
2021/08/17 09:42:41;;;;;;;11.90;7.83;;;23.40;54.30;;;;;;5085646;28;20274;-65
2021/08/17 09:45:20;;;;;;;10.03;7.30;;;23.40;54.20;;;;;;5108198;28;20207;-64
2021/08/17 09:47:57;;;;;;;13.07;8.20;;;23.40;54.60;;;;;;5073405;28;20231;-63
2021/08/17 09:50:37;;;;;;;10.33;8.17;;;23.40;55.70;;;;;;5092028;28;20195;-66
2021/08/17 09:53:16;;;;;;;11.50;7.13;;;23.30;56.40;;;;;;5091236;28;20195;-66
2021/08/17 09:55:58;;;;;;;9.57;6.73;;;23.30;56.30;;;;;;5095306;28;20189;-65
2021/08/17 09:58:37;;;;;;;9.20;7.03;;;23.30;56.30;;;;;;5091392;28;20299;-64
2021/08/17 10:01:10;;;;;;;14.87;7.23;;;23.30;56.60;;;;;;5098508;28;20223;-65
2021/08/17 10:03:43;;;;;;;8.83;7.10;;;23.30;56.50;;;;;;5072608;28;20288;-65
2021/08/17 10:06:27;;;;;;;10.93;7.00;;;23.30;56.70;;;;;;5096900;28;20226;-66
2021/08/17 10:09:01;;;;;;;10.70;7.30;;;23.20;56.80;;;;;;5115603;27;20276;-65
2021/08/17 10:11:34;;;;;;;9.53;7.70;;;23.20;56.90;;;;;;5100270;27;20192;-68
2021/08/17 10:14:04;;;;;;;9.70;6.90;;;23.20;56.60;;;;;;5091289;28;20203;-64
2021/08/17 10:16:43;;;;;;;13.20;7.00;;;23.20;56.80;;;;;;5108639;28;20200;-65
2021/08/17 10:19:19;;;;;;;13.90;7.77;;;23.20;56.60;;;;;;5116002;28;20272;-66
2021/08/17 10:21:58;;;;;;;12.50;7.77;;;23.20;56.40;;;;;;5090829;28;20307;-66
2021/08/17 10:24:43;;;;;;;10.33;6.83;;;23.10;56.20;;;;;;5096815;28;20191;-67
2021/08/17 10:27:23;;;;;;;12.83;7.50;;;23.10;56.20;;;;;;5113591;28;20538;-65
2021/08/17 10:30:19;;;;;;;7.20;6.33;;;23.10;56.00;;;;;;5117233;28;20677;-64
2021/08/17 10:32:57;;;;;;;10.37;6.70;;;23.10;56.60;;;;;;5111333;28;20268;-64
2021/08/17 10:35:49;;;;;;;8.70;6.20;;;23.10;56.90;;;;;;5117911;27;20677;-65
2021/08/17 10:38:28;;;;;;;10.40;6.83;;;23.10;56.90;;;;;;5121529;27;20192;-65
2021/08/17 10:41:06;;;;;;;8.03;6.20;;;23.10;56.70;;;;;;5115791;27;20227;-64
2021/08/17 10:43:53;;;;;;;10.63;6.70;;;23.10;56.80;;;;;;5122923;27;20211;-64
2021/08/17 10:46:55;;;;;;;9.00;6.80;;;23.00;56.50;;;;;;5117883;27;20203;-64
2021/08/17 10:49:47;;;;;;;10.57;6.90;;;23.00;56.90;;;;;;5101016;27;20227;-63
2021/08/17 10:52:38;;;;;;;7.90;6.47;;;23.00;56.10;;;;;;5101847;27;20744;-64
2021/08/17 10:55:26;;;;;;;8.73;6.50;;;23.00;56.40;;;;;;5088805;28;20275;-66
2021/08/17 10:58:12;;;;;;;7.27;6.37;;;23.00;57.00;;;;;;5105242;27;20324;-65
2021/08/17 11:00:57;;;;;;;8.37;6.43;;;23.00;57.40;;;;;;5111503;28;20206;-66
2021/08/17 11:03:47;;;;;;;8.47;6.73;;;23.10;57.00;;;;;;5109884;27;20772;-66
2021/08/17 11:06:45;;;;;;;7.33;6.20;;;23.20;57.80;;;;;;5112890;27;20610;-66
2021/08/17 11:09:37;;;;;;;9.73;5.87;;;23.20;57.20;;;;;;5105130;27;20227;-66
2021/08/17 11:12:09;;;;;;;7.53;6.20;;;23.20;57.20;;;;;;5094955;28;20199;-68
2021/08/17 11:14:42;;;;;;;9.73;6.00;;;23.30;57.70;;;;;;5112871;27;20582;-67
2021/08/17 11:17:33;;;;;;;6.77;5.43;;;23.30;57.60;;;;;;5092895;28;20234;-68
2021/08/17 11:20:11;;;;;;;9.23;6.10;;;23.30;57.80;;;;;;5089975;28;20257;-67
2021/08/17 11:22:42;;;;;;;7.80;5.50;;;23.30;57.30;;;;;;5113613;27;20660;-69
2021/08/17 11:25:11;;;;;;;6.43;5.10;;;23.40;57.40;;;;;;5105924;28;20219;-68
2021/08/17 11:27:50;;;;;;;7.47;5.47;;;23.40;57.00;;;;;;5110858;27;20215;-67
2021/08/17 11:30:22;;;;;;;7.30;6.00;;;23.40;57.20;;;;;;5111029;28;20199;-67
2021/08/17 11:32:58;;;;;;;7.93;5.63;;;23.50;56.70;;;;;;5105534;27;20197;-68
2021/08/17 11:35:30;;;;;;;6.27;5.13;;;23.50;56.90;;;;;;5091485;28;20188;-68
2021/08/17 11:37:58;;;;;;;6.97;4.77;;;23.50;56.80;;;;;;5112690;27;20246;-68
2021/08/17 11:40:26;;;;;;;6.77;5.10;;;23.50;56.50;;;;;;5096166;28;20216;-69
2021/08/17 11:42:56;;;;;;;7.07;4.40;;;23.50;56.90;;;;;;5094225;28;20799;-68
2021/08/17 11:45:31;;;;;;;7.20;5.10;;;23.50;56.60;;;;;;5099739;27;20283;-68
2021/08/17 11:48:01;;;;;;;7.10;5.13;;;23.60;56.30;;;;;;5101086;27;20242;-66
2021/08/17 11:50:31;;;;;;;8.73;4.83;;;23.60;56.30;;;;;;5083289;28;20199;-65
2021/08/17 11:53:02;;;;;;;5.77;4.43;;;23.60;55.90;;;;;;5110969;28;20235;-65
2021/08/17 11:55:35;;;;;;;7.27;4.57;;;23.60;56.40;;;;;;5110762;28;20188;-65
2021/08/17 11:58:08;;;;;;;7.03;4.97;;;23.60;56.40;;;;;;5094230;28;20227;-65
2021/08/17 12:00:41;;;;;;;7.00;4.70;;;23.60;56.20;;;;;;5095040;27;20200;-65
2021/08/17 12:03:10;;;;;;;7.57;5.00;;;23.60;56.40;;;;;;5111101;27;20290;-65
2021/08/17 12:05:41;;;;;;;5.40;4.47;;;23.60;56.70;;;;;;5109769;28;20550;-65
2021/08/17 12:08:15;;;;;;;6.43;4.97;;;23.60;56.50;;;;;;5112330;27;20261;-66
2021/08/17 12:10:46;;;;;;;5.17;4.67;;;23.70;56.40;;;;;;5103187;27;20212;-66
2021/08/17 12:13:20;;;;;;;6.03;4.17;;;23.70;56.10;;;;;;5112381;27;20352;-67
2021/08/17 12:15:57;;;;;;;6.20;5.27;;;23.70;56.20;;;;;;5105511;28;20204;-67
2021/08/17 12:18:31;;;;;;;7.17;4.90;;;23.70;56.00;;;;;;5089411;28;20689;-68
2021/08/17 12:21:10;;;;;;;6.70;5.13;;;23.70;56.10;;;;;;5096680;28;20695;-67
2021/08/17 12:23:46;;;;;;;6.97;4.77;;;23.70;56.10;;;;;;5090282;28;20261;-67
2021/08/17 12:26:22;;;;;;;6.43;5.00;;;23.70;56.20;;;;;;5089325;28;20634;-67
2021/08/17 12:28:51;;;;;;;5.73;4.70;;;23.70;56.10;;;;;;5089379;28;20220;-68
2021/08/17 12:31:32;;;;;;;5.30;4.13;;;23.80;56.10;;;;;;5090304;28;20217;-66
2021/08/17 12:34:16;;;;;;;7.13;4.63;;;23.80;56.30;;;;;;5093586;28;20273;-66
2021/08/17 12:36:52;;;;;;;6.17;5.23;;;23.70;56.40;;;;;;5086708;28;20275;-64
2021/08/17 12:39:30;;;;;;;5.87;5.07;;;23.70;55.90;;;;;;5091706;28;20592;-64
2021/08/17 12:42:06;;;;;;;6.10;4.50;;;23.70;55.90;;;;;;5091749;28;20266;-64
2021/08/17 12:44:44;;;;;;;5.43;4.80;;;23.60;56.00;;;;;;5090670;28;20196;-64
2021/08/17 12:47:33;;;;;;;5.60;5.00;;;23.60;55.90;;;;;;5090039;28;20872;-63
2021/08/17 12:50:09;;;;;;;8.40;5.43;;;23.60;55.80;;;;;;5098729;28;20590;-63
2021/08/17 12:52:43;;;;;;;6.30;5.07;;;23.60;55.70;;;;;;5093086;28;20630;-63
2021/08/17 12:55:18;;;;;;;5.27;4.30;;;23.50;55.80;;;;;;5101853;28;20197;-63
2021/08/17 12:57:55;;;;;;;5.30;4.77;;;23.50;56.00;;;;;;5088000;28;20194;-63
2021/08/17 13:00:29;;;;;;;6.37;4.50;;;23.50;56.20;;;;;;5093017;28;20216;-63
2021/08/17 13:03:05;;;;;;;5.37;4.87;;;23.40;56.70;;;;;;5081309;28;20235;-63
2021/08/17 13:05:36;;;;;;;6.33;4.90;;;23.40;56.20;;;;;;5095987;28;20708;-64
2021/08/17 13:08:08;;;;;;;6.80;4.60;;;23.40;56.40;;;;;;5098147;28;20223;-65